Time;durP1;ratioP1;P1;durP2;ratioP2;P2;SDS_P1;SDS_P2;PMS_P1;PMS_P2;Temp;Humidity;BMP_temperature;BMP_pressure;BME280_temperature;BME280_humidity;BME280_pressure;Samples;Min_cycle;Max_cycle;Signal;HPM_P1;HPM_P2
2024/02/12 00:01:40;;;;;;;2.70;1.17;;;;;;;5.05;100.00;95634.75;5017753;28;20054;-61
2024/02/12 00:04:07;;;;;;;1.23;0.88;;;;;;;5.11;100.00;95632.88;5017123;28;20120;-59
2024/02/12 00:06:35;;;;;;;4.40;1.30;;;;;;;5.28;100.00;95632.72;5013889;28;20033;-60
2024/02/12 00:09:03;;;;;;;2.65;1.15;;;;;;;5.26;100.00;95640.22;5022445;28;20034;-60
2024/02/12 00:11:30;;;;;;;2.00;0.90;;;;;;;5.36;100.00;95637.59;5027664;28;20661;-61
2024/02/12 00:13:57;;;;;;;3.92;1.10;;;;;;;5.36;100.00;95640.28;5017832;28;20744;-60
2024/02/12 00:16:26;;;;;;;2.35;1.05;;;;;;;5.32;100.00;95634.63;5019785;28;20103;-60
2024/02/12 00:18:52;;;;;;;2.83;1.10;;;;;;;5.24;100.00;95645.88;5019842;28;20052;-59
2024/02/12 00:21:19;;;;;;;2.55;1.05;;;;;;;5.32;100.00;95647.22;5023328;28;20120;-59
2024/02/12 00:23:46;;;;;;;2.60;1.20;;;;;;;5.12;100.00;95648.72;5020673;28;20045;-60
2024/02/12 00:26:14;;;;;;;3.03;1.30;;;;;;;5.06;100.00;95647.09;5018132;28;20045;-56
2024/02/12 00:28:41;;;;;;;3.50;1.20;;;;;;;4.99;100.00;95639.28;5021860;28;20044;-61
2024/02/12 00:31:12;;;;;;;4.10;1.48;;;;;;;4.97;100.00;95649.44;5018268;28;20128;-59
2024/02/12 00:33:40;;;;;;;2.97;1.23;;;;;;;5.06;100.00;95639.03;5028509;28;20489;-59
2024/02/12 00:36:09;;;;;;;2.22;1.17;;;;;;;5.14;100.00;95637.75;5035493;28;20125;-59
2024/02/12 00:38:39;;;;;;;3.13;1.02;;;;;;;4.93;100.00;95641.13;5026672;28;20112;-59
2024/02/12 00:41:12;;;;;;;3.83;1.15;;;;;;;4.86;100.00;95635.16;5022013;28;20045;-60
2024/02/12 00:43:42;;;;;;;3.90;1.30;;;;;;;4.79;100.00;95639.97;5024643;28;20056;-60
2024/02/12 00:46:10;;;;;;;3.35;1.15;;;;;;;4.87;100.00;95635.97;5027628;28;20048;-59
2024/02/12 00:48:38;;;;;;;2.10;1.08;;;;;;;4.78;100.00;95641.81;5024459;28;20032;-61
2024/02/12 00:51:05;;;;;;;3.20;1.00;;;;;;;4.73;100.00;95639.09;5033889;28;20420;-61
2024/02/12 00:53:32;;;;;;;2.70;1.13;;;;;;;4.66;100.00;95647.38;5019726;28;20602;-57
2024/02/12 00:55:59;;;;;;;2.08;0.90;;;;;;;4.68;100.00;95650.59;5025213;28;20132;-59
2024/02/12 00:58:26;;;;;;;2.25;1.10;;;;;;;4.49;100.00;95652.84;5029963;28;20501;-61
2024/02/12 01:00:53;;;;;;;3.20;1.45;;;;;;;4.38;100.00;95648.47;5023328;28;20145;-61
2024/02/12 01:03:19;;;;;;;2.33;0.90;;;;;;;4.36;100.00;95647.91;5024689;28;20571;-59
2024/02/12 01:05:48;;;;;;;2.00;0.80;;;;;;;4.46;100.00;95660.59;5017163;28;20072;-61
2024/02/12 01:08:15;;;;;;;2.38;1.02;;;;;;;4.58;100.00;95657.75;5022841;28;20040;-61
2024/02/12 01:10:41;;;;;;;2.35;1.17;;;;;;;4.63;100.00;95666.66;5019790;28;20064;-61
2024/02/12 01:13:08;;;;;;;1.70;0.90;;;;;;;4.78;100.00;95659.78;5026610;28;20133;-60
2024/02/12 01:15:34;;;;;;;2.95;1.00;;;;;;;4.73;100.00;95659.75;5027172;28;20037;-60
2024/02/12 01:18:03;;;;;;;2.90;0.85;;;;;;;4.76;100.00;95661.91;5023405;28;20033;-61
2024/02/12 01:20:36;;;;;;;1.70;0.90;;;;;;;4.86;100.00;95661.97;5035319;28;20116;-58
2024/02/12 01:23:05;;;;;;;2.08;0.95;;;;;;;4.79;100.00;95656.84;5018983;28;20052;-57
2024/02/12 01:25:32;;;;;;;2.03;0.77;;;;;;;4.75;100.00;95660.31;5027210;28;20045;-59
2024/02/12 01:28:02;;;;;;;5.03;0.90;;;;;;;4.76;100.00;95659.22;5023398;28;20041;-62
2024/02/12 01:30:28;;;;;;;3.22;0.88;;;;;;;4.91;100.00;95667.38;5032533;28;20032;-62
2024/02/12 01:32:55;;;;;;;2.65;0.88;;;;;;;5.00;100.00;95662.34;5025726;28;20055;-61
2024/02/12 01:35:23;;;;;;;1.85;0.77;;;;;;;5.06;100.00;95666.66;5034439;28;20041;-58
2024/02/12 01:37:51;;;;;;;1.73;0.82;;;;;;;5.20;100.00;95671.59;5029435;28;20041;-59
2024/02/12 01:40:18;;;;;;;3.03;0.80;;;;;;;5.23;100.00;95663.00;5027714;28;20051;-59
2024/02/12 01:42:45;;;;;;;1.70;0.88;;;;;;;5.28;100.00;95665.75;5020763;28;20045;-58
2024/02/12 01:45:11;;;;;;;3.40;0.90;;;;;;;5.24;100.00;95672.69;5032038;28;20049;-61
2024/02/12 01:47:44;;;;;;;3.30;1.33;;;;;;;5.21;100.00;95673.22;5031639;28;20049;-62
2024/02/12 01:50:12;;;;;;;2.35;0.65;;;;;;;5.30;100.00;95674.31;5028317;28;20040;-57
2024/02/12 01:52:48;;;;;;;1.17;0.70;;;;;;;5.23;100.00;95672.94;5033509;28;20045;-61
2024/02/12 01:55:18;;;;;;;0.98;0.60;;;;;;;5.19;100.00;95681.50;5021676;28;20125;-60
2024/02/12 01:57:50;;;;;;;1.52;0.68;;;;;;;5.29;100.00;95680.78;5028550;28;20044;-60
2024/02/12 02:00:18;;;;;;;2.40;0.60;;;;;;;5.24;100.00;95677.25;5028870;28;20036;-59
2024/02/12 02:02:58;;;;;;;1.20;0.45;;;;;;;5.28;100.00;95672.97;5023446;28;20509;-61
2024/02/12 02:05:25;;;;;;;1.67;0.75;;;;;;;4.97;100.00;95668.22;5012299;28;20042;-58
2024/02/12 02:07:56;;;;;;;1.75;0.57;;;;;;;5.00;100.00;95672.25;5022900;28;20107;-59
2024/02/12 02:10:23;;;;;;;1.75;0.77;;;;;;;5.27;100.00;95671.38;5031041;28;20257;-58
2024/02/12 02:12:50;;;;;;;1.10;0.60;;;;;;;5.29;100.00;95675.41;5026500;28;20084;-62
2024/02/12 02:15:17;;;;;;;1.02;0.60;;;;;;;5.43;100.00;95678.44;5031507;28;20124;-58
2024/02/12 02:17:43;;;;;;;2.22;0.70;;;;;;;5.59;100.00;95673.94;5028351;28;20041;-58
2024/02/12 02:20:12;;;;;;;2.35;0.50;;;;;;;5.53;100.00;95671.50;5033140;28;20500;-62
2024/02/12 02:22:39;;;;;;;1.20;0.55;;;;;;;5.56;100.00;95682.50;5021444;28;20072;-60
2024/02/12 02:25:09;;;;;;;2.30;0.50;;;;;;;5.60;100.00;95682.78;5028065;28;20038;-57
2024/02/12 02:27:35;;;;;;;1.17;0.43;;;;;;;5.52;100.00;95678.72;5024710;28;20045;-60
2024/02/12 02:30:07;;;;;;;2.00;0.73;;;;;;;5.44;100.00;95676.53;5029399;28;20463;-60
2024/02/12 02:32:37;;;;;;;2.08;0.63;;;;;;;5.35;100.00;95681.63;5029096;28;20037;-61
2024/02/12 02:35:04;;;;;;;1.67;0.65;;;;;;;5.28;100.00;95689.06;5025974;28;20067;-61
2024/02/12 02:37:32;;;;;;;2.58;0.52;;;;;;;5.32;100.00;95685.63;5026773;28;20574;-60
2024/02/12 02:39:58;;;;;;;3.42;0.85;;;;;;;5.47;100.00;95697.50;5026606;28;20402;-59
2024/02/12 02:42:25;;;;;;;2.38;0.75;;;;;;;5.68;100.00;95694.91;5025442;28;20041;-61
2024/02/12 02:44:55;;;;;;;1.13;0.60;;;;;;;5.69;100.00;95699.22;5022073;28;20041;-56
2024/02/12 02:47:21;;;;;;;0.50;0.40;;;;;;;5.46;100.00;95702.06;5020807;28;20045;-59
2024/02/12 02:49:48;;;;;;;1.30;0.50;;;;;;;5.57;100.00;95702.13;5024888;28;20041;-61
2024/02/12 02:52:16;;;;;;;1.40;0.50;;;;;;;5.71;100.00;95711.31;5024653;28;20050;-61
2024/02/12 02:54:45;;;;;;;0.95;0.30;;;;;;;5.76;100.00;95707.03;5024560;28;20042;-60
2024/02/12 02:57:13;;;;;;;4.15;0.40;;;;;;;5.82;100.00;95709.47;5027755;28;20038;-60
2024/02/12 02:59:41;;;;;;;1.25;0.60;;;;;;;5.73;100.00;95716.41;5027113;28;20042;-57
2024/02/12 03:02:11;;;;;;;0.95;0.40;;;;;;;5.71;100.00;95708.63;5026771;28;20285;-59
2024/02/12 03:04:40;;;;;;;1.45;0.50;;;;;;;5.53;100.00;95707.19;5031730;28;20551;-61
2024/02/12 03:07:10;;;;;;;1.15;0.50;;;;;;;5.46;100.00;95707.41;5026853;28;20067;-61
2024/02/12 03:09:37;;;;;;;1.17;0.60;;;;;;;5.50;100.00;95707.72;5022837;28;20096;-61
2024/02/12 03:12:04;;;;;;;1.52;0.68;;;;;;;5.33;100.00;95706.03;5021174;28;20050;-58
2024/02/12 03:14:31;;;;;;;0.85;0.52;;;;;;;5.50;100.00;95710.41;5021165;28;20041;-61
2024/02/12 03:16:58;;;;;;;2.05;0.70;;;;;;;5.67;100.00;95722.81;5025287;28;20156;-60
2024/02/12 03:19:25;;;;;;;1.95;0.88;;;;;;;5.68;100.00;95713.72;5028094;28;20049;-60
2024/02/12 03:21:51;;;;;;;1.80;0.75;;;;;;;5.73;100.00;95719.09;5030002;28;20408;-61
2024/02/12 03:24:21;;;;;;;2.78;0.90;;;;;;;5.72;100.00;95723.66;5024751;28;20120;-59
2024/02/12 03:26:50;;;;;;;2.08;0.95;;;;;;;5.69;100.00;95720.69;5019683;28;20473;-60
2024/02/12 03:29:19;;;;;;;2.30;0.77;;;;;;;5.81;100.00;95739.28;5022054;28;20116;-61
2024/02/12 03:31:46;;;;;;;1.38;0.70;;;;;;;5.88;100.00;95733.66;5020315;28;20064;-59
2024/02/12 03:34:14;;;;;;;1.63;0.80;;;;;;;5.84;100.00;95741.44;5022463;28;20041;-57
2024/02/12 03:36:42;;;;;;;2.28;0.75;;;;;;;5.78;100.00;95732.56;5021205;28;20823;-58
2024/02/12 03:39:11;;;;;;;1.70;0.80;;;;;;;5.60;100.00;95740.00;5023295;28;20416;-59
2024/02/12 03:41:38;;;;;;;2.38;0.80;;;;;;;5.62;100.00;95744.28;5022117;28;20108;-59
2024/02/12 03:44:05;;;;;;;2.22;0.75;;;;;;;5.56;100.00;95754.19;5023678;28;20049;-60
2024/02/12 03:46:35;;;;;;;1.58;0.80;;;;;;;5.58;100.00;95754.75;5019957;28;20037;-60
2024/02/12 04:00:24;;;;;;;2.10;1.00;;;;;;;5.60;100.00;95753.41;5020680;28;20045;-58
2024/02/12 04:02:51;;;;;;;3.50;0.95;;;;;;;5.66;100.00;95758.81;5028331;28;20072;-62
2024/02/12 04:05:19;;;;;;;2.13;1.00;;;;;;;5.63;100.00;95762.03;5015847;28;20076;-61
2024/02/12 04:07:45;;;;;;;2.30;1.08;;;;;;;5.69;100.00;95761.78;5017392;28;20049;-60
2024/02/12 04:10:12;;;;;;;2.67;1.13;;;;;;;5.80;100.00;95778.78;5028308;28;20044;-58
2024/02/12 04:12:43;;;;;;;1.80;0.85;;;;;;;5.80;100.00;95773.41;5020626;28;20398;-61
2024/02/12 04:15:10;;;;;;;2.05;0.95;;;;;;;5.63;100.00;95773.56;5021529;28;20498;-60
2024/02/12 04:17:37;;;;;;;4.65;1.70;;;;;;;5.51;100.00;95770.25;5022179;28;20048;-59
2024/02/12 04:20:06;;;;;;;2.58;1.13;;;;;;;5.54;100.00;95781.31;5026781;28;20036;-61
2024/02/12 04:22:35;;;;;;;2.85;1.25;;;;;;;5.63;100.00;95792.34;5021703;28;20115;-61
2024/02/12 04:25:04;;;;;;;3.38;1.23;;;;;;;5.65;100.00;95797.47;5019415;28;20559;-60
2024/02/12 04:27:33;;;;;;;3.33;1.50;;;;;;;5.60;100.00;95803.59;5025288;28;20038;-60
2024/02/12 04:29:59;;;;;;;3.05;1.58;;;;;;;5.79;100.00;95806.69;5016761;28;20045;-60
2024/02/12 04:32:26;;;;;;;2.67;1.30;;;;;;;5.77;100.00;95803.47;5023072;28;20045;-63
2024/02/12 04:34:53;;;;;;;3.25;1.38;;;;;;;5.80;100.00;95808.31;5024793;28;20533;-59
2024/02/12 04:37:20;;;;;;;6.03;1.48;;;;;;;5.76;100.00;95825.19;5021790;28;20052;-61
2024/02/12 04:39:48;;;;;;;4.07;1.75;;;;;;;5.78;100.00;95810.44;5024272;28;20092;-62
2024/02/12 04:42:15;;;;;;;6.43;1.75;;;;;;;5.78;100.00;95821.19;5016131;28;20467;-61
2024/02/12 04:44:42;;;;;;;3.22;1.70;;;;;;;5.86;100.00;95826.06;5021093;28;20076;-62
2024/02/12 04:47:09;;;;;;;5.43;1.95;;;;;;;5.79;100.00;95816.63;5019811;28;20034;-60
2024/02/12 04:49:36;;;;;;;4.72;1.83;;;;;;;5.77;100.00;95824.94;5026329;28;20101;-60
2024/02/12 04:52:04;;;;;;;5.00;2.30;;;;;;;5.66;100.00;95823.25;5021964;28;20074;-60
2024/02/12 04:54:33;;;;;;;6.00;2.65;;;;;;;5.56;100.00;95822.13;5018868;28;20419;-61
2024/02/12 04:57:00;;;;;;;3.47;2.20;;;;;;;5.67;100.00;95819.50;5019234;28;20679;-61
2024/02/12 04:59:26;;;;;;;8.05;2.20;;;;;;;5.68;100.00;95819.25;5025520;28;20059;-57
2024/02/12 05:01:54;;;;;;;5.13;2.38;;;;;;;5.75;100.00;95827.06;5020577;28;20422;-61
2024/02/12 05:04:21;;;;;;;4.82;2.25;;;;;;;5.64;100.00;95830.78;5028536;28;20641;-62
2024/02/12 05:06:47;;;;;;;6.75;2.10;;;;;;;5.59;100.00;95832.34;5021879;28;20230;-62
2024/02/12 05:09:15;;;;;;;4.22;2.10;;;;;;;5.57;100.00;95842.53;5016270;28;20074;-62
2024/02/12 05:11:41;;;;;;;7.93;2.28;;;;;;;5.63;100.00;95839.91;5020171;28;20041;-60
2024/02/12 05:14:08;;;;;;;5.18;2.38;;;;;;;5.71;100.00;95828.66;5025591;28;20053;-59
2024/02/12 05:16:35;;;;;;;4.18;2.13;;;;;;;5.71;100.00;95839.38;5023830;28;20053;-62
2024/02/12 05:24:33;;;;;;;6.75;2.15;;;;;;;5.80;100.00;95840.56;5012085;28;20046;-61
2024/02/12 05:27:00;;;;;;;6.13;2.28;;;;;;;5.84;100.00;95840.84;5023663;28;20068;-62
2024/02/12 05:29:27;;;;;;;6.18;2.40;;;;;;;5.83;100.00;95839.22;5030724;28;20045;-60
2024/02/12 05:31:54;;;;;;;7.40;2.53;;;;;;;5.93;100.00;95841.16;5031152;28;20124;-62
2024/02/12 05:34:23;;;;;;;6.28;2.50;;;;;;;5.82;100.00;95846.47;5018818;28;20045;-61
2024/02/12 05:36:56;;;;;;;7.07;2.47;;;;;;;5.79;100.00;95849.66;5020310;28;20057;-59
2024/02/12 05:39:23;;;;;;;5.90;2.47;;;;;;;5.75;100.00;95855.81;5022429;28;20566;-62
2024/02/12 05:41:51;;;;;;;5.50;2.50;;;;;;;5.85;100.00;95855.88;5021175;28;20054;-59
2024/02/12 05:44:17;;;;;;;9.80;3.00;;;;;;;5.73;100.00;95851.53;5029603;28;20042;-57
2024/02/12 05:46:44;;;;;;;6.40;2.45;;;;;;;5.76;100.00;95862.81;5022067;28;20045;-62
2024/02/12 05:49:14;;;;;;;6.97;2.95;;;;;;;5.72;100.00;95867.88;5025847;28;20072;-60
2024/02/12 05:51:44;;;;;;;8.10;2.95;;;;;;;5.68;100.00;95864.09;5018283;28;20037;-61
2024/02/12 05:54:10;;;;;;;5.72;2.70;;;;;;;5.66;100.00;95868.91;5023546;28;20041;-58
2024/02/12 05:56:39;;;;;;;8.00;3.13;;;;;;;5.69;100.00;95869.22;5028430;28;20041;-63
2024/02/12 05:59:08;;;;;;;6.85;3.15;;;;;;;5.66;100.00;95872.41;5031978;28;20065;-60
2024/02/12 06:01:35;;;;;;;5.60;2.85;;;;;;;5.68;100.00;95882.91;5030301;28;20052;-61
2024/02/12 06:04:01;;;;;;;10.50;3.35;;;;;;;5.70;100.00;95884.25;5020995;28;20670;-60
2024/02/12 06:06:28;;;;;;;7.00;3.05;;;;;;;5.79;100.00;95895.31;5021303;28;20045;-59
2024/02/12 06:08:55;;;;;;;6.00;2.80;;;;;;;5.77;100.00;95892.09;5027575;28;20744;-59
2024/02/12 06:11:21;;;;;;;8.88;2.63;;;;;;;5.76;100.00;95897.72;5028040;28;20071;-61
2024/02/12 06:13:48;;;;;;;7.38;3.67;;;;;;;5.69;100.00;95888.03;5022466;28;20041;-59
2024/02/12 06:16:15;;;;;;;5.53;2.80;;;;;;;5.62;100.00;95892.78;5028174;28;20038;-59
2024/02/12 06:18:41;;;;;;;5.82;2.55;;;;;;;5.60;100.00;95902.97;5026541;28;20049;-60
2024/02/12 06:21:08;;;;;;;7.68;3.47;;;;;;;5.56;100.00;95899.16;5014941;28;20444;-59
2024/02/12 06:23:37;;;;;;;8.60;3.17;;;;;;;5.58;100.00;95908.63;5028629;28;20578;-59
2024/02/12 06:26:03;;;;;;;7.75;2.72;;;;;;;5.69;100.00;95900.63;5034026;28;20044;-59
2024/02/12 06:28:30;;;;;;;9.45;3.35;;;;;;;5.55;100.00;95898.38;5029981;28;20580;-58
2024/02/12 06:30:57;;;;;;;6.20;2.40;;;;;;;5.47;100.00;95905.03;5019836;28;20456;-59
2024/02/12 06:33:23;;;;;;;7.80;2.88;;;;;;;5.34;100.00;95902.75;5018549;28;20108;-60
2024/02/12 06:35:50;;;;;;;6.35;2.75;;;;;;;5.31;100.00;95909.44;5021285;28;20064;-59
2024/02/12 06:38:17;;;;;;;9.10;3.55;;;;;;;5.22;100.00;95908.28;5017199;28;20048;-56
2024/02/12 06:40:43;;;;;;;5.70;3.08;;;;;;;5.19;100.00;95909.59;5037151;28;20056;-59
2024/02/12 06:43:11;;;;;;;5.07;3.20;;;;;;;5.15;100.00;95915.72;5015093;28;20135;-59
2024/02/12 06:45:37;;;;;;;6.13;2.72;;;;;;;5.14;100.00;95920.28;5018184;28;20048;-59
2024/02/12 06:48:04;;;;;;;6.82;3.65;;;;;;;5.24;100.00;95924.94;5026058;28;20095;-58
2024/02/12 06:50:31;;;;;;;10.13;4.20;;;;;;;5.20;100.00;95924.63;5023820;28;20042;-56
2024/02/12 06:52:58;;;;;;;9.95;3.33;;;;;;;5.20;100.00;95932.69;5025456;28;20056;-57
2024/02/12 06:55:24;;;;;;;7.10;3.30;;;;;;;5.22;100.00;95932.44;5029093;28;20041;-58
2024/02/12 06:57:51;;;;;;;7.60;3.00;;;;;;;5.36;100.00;95942.75;5025505;28;20069;-60
2024/02/12 07:00:19;;;;;;;8.23;2.90;;;;;;;5.27;100.00;95942.41;5033925;28;20537;-56
2024/02/12 07:02:46;;;;;;;9.20;2.88;;;;;;;5.33;100.00;95949.44;5019453;28;20145;-59
2024/02/12 07:05:17;;;;;;;7.00;2.58;;;;;;;5.24;100.00;95946.41;5019770;28;20084;-58
2024/02/12 07:07:48;;;;;;;4.85;2.53;;;;;;;5.22;100.00;95940.47;5019129;28;20095;-58
2024/02/12 07:10:14;;;;;;;8.10;2.60;;;;;;;5.31;100.00;95951.59;5021467;28;20041;-57
2024/02/12 07:12:41;;;;;;;4.75;2.10;;;;;;;5.30;100.00;95949.94;5017857;28;20457;-58
2024/02/12 07:15:09;;;;;;;5.28;2.40;;;;;;;5.35;100.00;95955.38;5024093;28;20049;-55
2024/02/12 07:17:35;;;;;;;5.18;2.35;;;;;;;5.36;100.00;95956.19;5030515;28;20110;-59
2024/02/12 07:20:04;;;;;;;4.43;2.20;;;;;;;5.28;100.00;95962.81;5021933;28;20041;-58
2024/02/12 07:22:30;;;;;;;5.20;2.50;;;;;;;5.24;100.00;95967.06;5019164;28;20044;-60
2024/02/12 07:24:57;;;;;;;4.40;2.40;;;;;;;5.22;100.00;95970.00;5020038;28;20671;-60
2024/02/12 07:27:24;;;;;;;5.20;2.83;;;;;;;5.18;100.00;95976.94;5020130;28;20052;-58
2024/02/12 07:29:51;;;;;;;5.25;2.17;;;;;;;5.22;100.00;95978.03;5029995;28;20212;-59
2024/02/12 07:32:17;;;;;;;6.50;2.10;;;;;;;5.20;100.00;95985.56;5017658;28;20429;-58
2024/02/12 07:34:44;;;;;;;5.00;2.40;;;;;;;5.15;100.00;95990.84;5024371;28;20187;-59
2024/02/12 07:37:11;;;;;;;6.32;2.55;;;;;;;5.15;100.00;95988.97;5022483;28;20045;-58
2024/02/12 07:39:39;;;;;;;4.70;2.20;;;;;;;5.12;100.00;95986.00;5022876;28;20091;-58
2024/02/12 07:42:07;;;;;;;7.03;2.28;;;;;;;5.05;100.00;95991.56;5027414;28;20055;-60
2024/02/12 07:44:34;;;;;;;5.68;2.28;;;;;;;5.13;100.00;95996.47;5021082;28;20060;-58
2024/02/12 07:47:03;;;;;;;3.67;1.80;;;;;;;5.17;100.00;96007.50;5020742;28;20072;-57
2024/02/12 07:49:31;;;;;;;4.72;1.80;;;;;;;5.29;100.00;96002.00;5015358;28;20056;-58
2024/02/12 07:52:01;;;;;;;5.13;1.85;;;;;;;5.31;100.00;96019.47;5022106;28;20148;-58
2024/02/12 07:54:29;;;;;;;3.38;1.75;;;;;;;5.36;100.00;96015.22;5015834;28;20048;-56
2024/02/12 07:56:57;;;;;;;4.90;2.00;;;;;;;5.45;100.00;96019.91;5017859;28;20057;-57
2024/02/12 07:59:24;;;;;;;3.65;1.95;;;;;;;5.45;100.00;96024.44;5025631;28;20044;-59
2024/02/12 08:01:54;;;;;;;4.30;1.88;;;;;;;5.59;100.00;96017.63;5019403;28;20049;-58
2024/02/12 08:04:21;;;;;;;4.80;1.90;;;;;;;5.69;100.00;96026.84;5023831;28;20099;-58
2024/02/12 08:06:48;;;;;;;4.13;1.80;;;;;;;5.79;100.00;96024.25;5013496;28;20088;-59
2024/02/12 08:09:17;;;;;;;4.68;1.67;;;;;;;5.73;100.00;96026.09;5023026;28;20641;-58
2024/02/12 08:11:44;;;;;;;4.30;1.80;;;;;;;5.71;100.00;96030.91;5020984;28;20075;-57
2024/02/12 08:14:11;;;;;;;4.95;1.92;;;;;;;5.68;100.00;96030.59;5016522;28;20050;-58
2024/02/12 08:16:43;;;;;;;2.70;1.30;;;;;;;5.72;100.00;96027.13;5016059;28;20049;-58
2024/02/12 08:19:10;;;;;;;;;;;;;;;5.67;100.00;96039.69;5026596;28;20049;-59
2024/02/12 08:21:36;;;;;;;4.68;1.63;;;;;;;5.76;100.00;96045.44;5023837;28;20070;-58
2024/02/12 08:24:04;;;;;;;4.40;1.85;;;;;;;5.81;100.00;96040.09;5023184;28;20136;-57
2024/02/12 08:26:30;;;;;;;4.55;1.65;;;;;;;5.93;100.00;96053.41;5020661;28;20068;-58
2024/02/12 08:29:00;;;;;;;4.90;1.55;;;;;;;5.96;100.00;96055.56;5023821;28;20568;-58
2024/02/12 08:31:27;;;;;;;5.60;1.85;;;;;;;6.22;100.00;96053.94;5020806;28;20420;-58
2024/02/12 08:33:56;;;;;;;3.42;1.33;;;;;;;6.06;100.00;96058.38;5025956;28;20044;-59
2024/02/12 08:36:23;;;;;;;4.03;1.52;;;;;;;6.15;100.00;96060.59;5020133;28;20048;-58
2024/02/12 08:38:49;;;;;;;5.25;1.90;;;;;;;6.12;100.00;96061.94;5016542;28;20047;-59
2024/02/12 08:41:22;;;;;;;2.88;1.50;;;;;;;6.06;100.00;96063.75;5026938;28;20138;-59
2024/02/12 08:43:51;;;;;;;2.80;1.20;;;;;;;6.08;100.00;96069.69;5015677;28;20412;-58
2024/02/12 08:46:18;;;;;;;4.55;1.80;;;;;;;6.16;100.00;96083.72;5027016;28;20528;-59
2024/02/12 08:48:45;;;;;;;3.90;1.45;;;;;;;6.20;100.00;96082.94;5020301;28;20152;-57
2024/02/12 08:51:11;;;;;;;2.80;1.35;;;;;;;6.31;100.00;96080.34;5017802;28;20030;-58
2024/02/12 08:53:43;;;;;;;4.53;1.58;;;;;;;6.38;100.00;96080.97;5019714;28;20042;-55
2024/02/12 08:56:16;;;;;;;3.35;1.35;;;;;;;6.61;100.00;96092.41;5020633;28;20140;-57
2024/02/12 08:58:44;;;;;;;3.58;1.38;;;;;;;6.66;100.00;96091.66;5016146;28;20046;-57
2024/02/12 09:01:11;;;;;;;2.45;1.05;;;;;;;6.57;100.00;96094.81;5026197;28;20055;-58
2024/02/12 09:03:42;;;;;;;2.05;1.00;;;;;;;6.56;100.00;96103.94;5022579;28;20068;-57
2024/02/12 09:06:14;;;;;;;2.97;0.90;;;;;;;6.72;100.00;96104.06;5019910;28;20049;-59
2024/02/12 09:08:45;;;;;;;2.15;0.93;;;;;;;6.70;100.00;96106.19;5019636;28;20138;-60
2024/02/12 09:11:12;;;;;;;1.92;1.00;;;;;;;6.83;100.00;96103.06;5017738;28;20038;-59
2024/02/12 09:13:42;;;;;;;2.13;0.82;;;;;;;6.83;100.00;96105.75;5023542;28;20033;-59
2024/02/12 09:16:09;;;;;;;4.00;1.13;;;;;;;6.87;100.00;96100.66;5023936;28;20045;-59
2024/02/12 09:18:35;;;;;;;2.95;1.13;;;;;;;6.89;100.00;96107.41;5018085;28;20046;-59
2024/02/12 09:21:02;;;;;;;5.03;1.38;;;;;;;6.94;100.00;96103.13;5024696;28;20091;-58
2024/02/12 09:23:30;;;;;;;2.45;1.30;;;;;;;6.98;100.00;96110.44;5027554;28;20072;-60
2024/02/12 09:25:57;;;;;;;2.17;0.93;;;;;;;6.94;100.00;96106.63;5027946;28;20049;-57
2024/02/12 09:28:26;;;;;;;2.88;1.27;;;;;;;6.80;100.00;96116.22;5026930;28;20400;-59
2024/02/12 09:30:59;;;;;;;2.72;1.00;;;;;;;6.99;100.00;96106.66;5021247;28;20053;-56
2024/02/12 09:33:29;;;;;;;7.25;1.30;;;;;;;6.98;100.00;96110.44;5019018;28;20619;-58
2024/02/12 09:35:56;;;;;;;2.78;0.98;;;;;;;6.98;100.00;96109.59;5027922;28;20102;-60
2024/02/12 09:38:23;;;;;;;3.15;1.25;;;;;;;6.97;100.00;96110.69;5026733;28;20049;-58
2024/02/12 09:40:50;;;;;;;2.47;1.10;;;;;;;6.96;100.00;96111.75;5025668;28;20393;-58
2024/02/12 09:43:21;;;;;;;3.20;1.30;;;;;;;6.97;100.00;96110.69;5031160;28;20706;-58
2024/02/12 09:45:49;;;;;;;3.38;1.30;;;;;;;6.89;100.00;96114.66;5019772;28;20061;-55
2024/02/12 09:48:17;;;;;;;4.00;1.23;;;;;;;6.98;100.00;96118.50;5027823;28;20057;-60
2024/02/12 09:50:48;;;;;;;5.20;1.40;;;;;;;7.03;100.00;96123.09;5020319;28;20040;-60
2024/02/12 09:53:17;;;;;;;4.05;1.50;;;;;;;6.93;100.00;96133.81;5030497;28;20033;-58
2024/02/12 09:55:47;;;;;;;3.67;1.42;;;;;;;7.21;100.00;96124.53;5032350;28;20064;-56
2024/02/12 09:58:15;;;;;;;3.45;1.33;;;;;;;7.29;100.00;96123.22;5019252;28;20046;-59
2024/02/12 10:00:43;;;;;;;4.03;1.20;;;;;;;7.43;100.00;96128.97;5026037;28;20505;-59
2024/02/12 10:03:13;;;;;;;3.38;1.38;;;;;;;7.45;100.00;96131.38;5016262;28;20037;-56
2024/02/12 10:05:42;;;;;;;3.40;1.33;;;;;;;7.53;100.00;96139.75;5028527;28;20048;-58
2024/02/12 10:08:20;;;;;;;2.33;1.10;;;;;;;7.70;100.00;96149.53;5023518;28;20046;-59
2024/02/12 10:10:48;;;;;;;2.33;1.10;;;;;;;7.74;100.00;96145.25;5021662;28;20444;-60
2024/02/12 10:13:19;;;;;;;3.60;1.20;;;;;;;7.83;100.00;96147.44;5029530;28;20060;-60
2024/02/12 10:15:47;;;;;;;5.70;1.50;;;;;;;7.68;100.00;96157.09;5023806;28;21599;-59
2024/02/12 10:18:15;;;;;;;4.30;1.20;;;;;;;7.63;100.00;96157.06;5020904;28;20068;-58
2024/02/12 10:20:44;;;;;;;3.10;1.10;;;;;;;7.43;100.00;96153.19;5033704;28;20048;-58
2024/02/12 10:23:15;;;;;;;4.38;1.35;;;;;;;7.55;100.00;96161.88;5020602;28;20132;-57
2024/02/12 10:25:45;;;;;;;4.25;1.27;;;;;;;7.50;100.00;96169.13;5024189;28;20045;-59
2024/02/12 10:28:13;;;;;;;5.00;1.58;;;;;;;7.38;100.00;96164.75;5023630;28;20147;-60
2024/02/12 10:30:42;;;;;;;3.38;1.50;;;;;;;7.34;100.00;96163.63;5015314;28;20029;-60
2024/02/12 10:33:10;;;;;;;5.13;1.63;;;;;;;7.50;100.00;96166.41;5021953;28;20051;-60
2024/02/12 10:35:45;;;;;;;5.20;1.60;;;;;;;7.50;100.00;96161.84;5031503;28;20067;-60
2024/02/12 10:38:16;;;;;;;3.80;1.27;;;;;;;7.47;100.00;96161.56;5030896;28;20052;-59
2024/02/12 10:41:03;;;;;;;4.43;1.50;;;;;;;7.65;100.00;96154.91;5022106;28;20041;-60
2024/02/12 10:43:34;;;;;;;3.75;1.25;;;;;;;7.70;100.00;96163.00;5023964;28;20048;-58
2024/02/12 10:46:04;;;;;;;3.42;1.35;;;;;;;7.78;100.00;96159.81;5030318;28;20069;-58
2024/02/12 10:48:32;;;;;;;6.25;1.40;;;;;;;7.75;100.00;96165.75;5023538;28;20647;-58
2024/02/12 10:51:00;;;;;;;3.72;1.27;;;;;;;7.90;100.00;96169.56;5026545;28;20041;-60
2024/02/12 10:53:31;;;;;;;5.72;1.48;;;;;;;7.78;100.00;96170.59;5025035;28;20052;-59
2024/02/12 10:55:58;;;;;;;3.67;1.15;;;;;;;8.03;100.00;96168.25;5022640;28;20053;-60
2024/02/12 10:58:26;;;;;;;3.03;1.27;;;;;;;7.95;100.00;96164.19;5023882;28;20960;-58
2024/02/12 11:00:57;;;;;;;4.82;1.45;;;;;;;7.58;100.00;96155.16;5023566;28;20052;-60
2024/02/12 11:03:36;;;;;;;2.90;1.20;;;;;;;7.67;100.00;96169.72;5029165;28;20037;-57
2024/02/12 11:06:08;;;;;;;2.72;1.08;;;;;;;7.78;100.00;96170.59;5023651;28;20057;-60
2024/02/12 11:08:37;;;;;;;3.55;1.20;;;;;;;7.72;100.00;96166.25;5020859;28;20417;-59
2024/02/12 11:11:14;;;;;;;2.88;1.20;;;;;;;7.49;100.00;96168.28;5030573;28;20038;-60
2024/02/12 11:13:44;;;;;;;4.40;1.20;;;;;;;7.64;100.00;96177.53;5026157;28;20648;-60
2024/02/12 11:16:15;;;;;;;3.70;1.10;;;;;;;7.53;100.00;96171.28;5024086;28;20050;-59
2024/02/12 11:18:42;;;;;;;2.65;1.10;;;;;;;7.47;100.00;96170.44;5034665;28;20049;-60
2024/02/12 11:21:16;;;;;;;1.88;1.05;;;;;;;7.63;100.00;96176.72;5023443;28;20418;-61
2024/02/12 11:23:46;;;;;;;3.65;1.20;;;;;;;7.78;100.00;96167.09;5022233;28;20036;-59
2024/02/12 11:26:14;;;;;;;2.60;1.00;;;;;;;7.96;100.00;96173.09;5017309;28;20046;-61
2024/02/12 11:28:47;;;;;;;3.22;1.05;;;;;;;7.93;100.00;96169.03;5022213;28;20164;-59
2024/02/12 11:31:14;;;;;;;1.65;0.85;;;;;;;8.14;100.00;96164.50;5019970;28;20049;-60
2024/02/12 11:33:42;;;;;;;2.35;0.90;;;;;;;8.17;100.00;96176.63;5021765;28;20041;-59
2024/02/12 11:36:10;;;;;;;3.67;1.33;;;;;;;8.07;100.00;96174.72;5019375;28;20041;-59
2024/02/12 11:38:48;;;;;;;2.97;0.82;;;;;;;7.98;100.00;96179.84;5019730;28;20052;-60
2024/02/12 11:41:15;;;;;;;3.65;1.00;;;;;;;7.77;100.00;96170.84;5017393;28;20122;-58
2024/02/12 11:43:43;;;;;;;2.80;1.35;;;;;;;7.63;100.00;96178.63;5018634;28;20330;-60
2024/02/12 11:46:15;;;;;;;2.58;1.08;;;;;;;7.60;100.00;96177.25;5022498;28;20509;-59
2024/02/12 11:48:42;;;;;;;2.00;0.88;;;;;;;7.84;100.00;96186.75;5027371;28;20678;-60
2024/02/12 11:51:09;;;;;;;3.78;1.00;;;;;;;8.00;100.00;96182.25;5027402;28;20049;-58
2024/02/12 11:53:39;;;;;;;3.92;0.95;;;;;;;8.01;100.00;96184.69;5028394;28;20513;-59
2024/02/12 11:56:07;;;;;;;1.38;0.52;;;;;;;8.11;100.00;96191.97;5030752;28;20055;-59